Time;durP1;ratioP1;P1;durP2;ratioP2;P2;SDS_P1;SDS_P2;PMS_P1;PMS_P2;Temp;Humidity;BMP_temperature;BMP_pressure;BME280_temperature;BME280_humidity;BME280_pressure;Samples;Min_cycle;Max_cycle;Signal;HPM_P1;HPM_P2
2022/05/20 00:02:09;;;;;;;5.18;3.95;;;18.20;52.20;;;;;;5074871;28;20591;-65
2022/05/20 00:04:36;;;;;;;7.60;3.75;;;18.20;52.40;;;;;;5075006;28;20725;-66
2022/05/20 00:07:04;;;;;;;5.88;3.30;;;18.20;52.40;;;;;;5076457;28;20228;-66
2022/05/20 00:09:32;;;;;;;8.15;3.78;;;18.20;52.50;;;;;;5072666;28;20216;-67
2022/05/20 00:11:59;;;;;;;9.48;3.80;;;18.10;52.50;;;;;;5064642;28;20214;-65
2022/05/20 00:14:26;;;;;;;8.07;4.00;;;18.10;52.60;;;;;;5074713;28;20324;-65
2022/05/20 00:16:53;;;;;;;8.43;4.07;;;18.10;52.70;;;;;;5073941;28;20260;-66
2022/05/20 00:19:19;;;;;;;7.40;3.47;;;18.00;52.70;;;;;;5067441;28;20228;-66
2022/05/20 00:21:46;;;;;;;6.05;3.53;;;18.00;52.90;;;;;;5075305;28;20292;-66
2022/05/20 00:24:13;;;;;;;12.73;4.20;;;17.90;53.00;;;;;;5075782;28;20209;-66
2022/05/20 00:26:41;;;;;;;7.18;3.88;;;18.00;53.10;;;;;;5073086;28;20232;-65
2022/05/20 00:29:08;;;;;;;5.93;3.85;;;17.90;53.00;;;;;;5070852;28;20270;-66
2022/05/20 00:31:35;;;;;;;7.40;4.03;;;17.90;53.00;;;;;;5074592;28;20209;-66
2022/05/20 00:34:02;;;;;;;5.43;3.45;;;17.90;53.10;;;;;;5074852;28;20292;-66
2022/05/20 00:36:29;;;;;;;6.40;3.80;;;17.80;53.20;;;;;;5071744;28;20645;-65
2022/05/20 00:38:56;;;;;;;5.97;3.67;;;17.80;53.30;;;;;;5072636;28;20287;-65
2022/05/20 00:41:23;;;;;;;6.43;3.85;;;17.80;53.40;;;;;;5075681;28;20213;-66
2022/05/20 00:43:52;;;;;;;6.35;3.65;;;17.80;53.50;;;;;;5068950;28;20249;-67
2022/05/20 00:46:22;;;;;;;6.38;3.72;;;17.70;53.60;;;;;;5074072;28;20205;-65
2022/05/20 00:48:56;;;;;;;9.13;3.80;;;17.70;53.80;;;;;;5073444;28;20596;-66
2022/05/20 00:51:26;;;;;;;6.68;3.47;;;17.60;54.40;;;;;;5067182;28;20204;-66
2022/05/20 00:53:58;;;;;;;8.55;3.97;;;17.60;54.00;;;;;;5067841;28;20259;-66
2022/05/20 00:56:31;;;;;;;7.25;3.38;;;17.50;54.10;;;;;;5062030;28;20237;-65
2022/05/20 00:59:00;;;;;;;7.35;3.95;;;17.50;54.20;;;;;;5067161;28;20233;-65
2022/05/20 01:01:28;;;;;;;5.07;3.30;;;17.40;54.30;;;;;;5071331;28;20255;-66
2022/05/20 01:03:57;;;;;;;7.40;3.85;;;17.40;54.50;;;;;;5070440;28;20209;-65
2022/05/20 01:06:23;;;;;;;8.80;3.88;;;17.40;54.70;;;;;;5069616;28;20244;-65
2022/05/20 01:08:50;;;;;;;5.88;3.00;;;17.40;54.80;;;;;;5079753;28;20239;-66
2022/05/20 01:11:17;;;;;;;8.68;3.35;;;17.30;54.70;;;;;;5065700;28;20209;-66
2022/05/20 01:13:47;;;;;;;7.15;3.28;;;17.30;54.80;;;;;;5076460;28;20660;-66
2022/05/20 01:16:17;;;;;;;7.13;3.67;;;17.30;54.90;;;;;;5073434;28;20225;-66
2022/05/20 01:18:46;;;;;;;4.80;3.67;;;17.20;54.90;;;;;;5078607;28;20252;-66
2022/05/20 01:21:14;;;;;;;6.35;3.38;;;17.20;55.10;;;;;;5066430;28;20233;-66
2022/05/20 01:23:43;;;;;;;5.60;3.55;;;17.20;55.80;;;;;;5071434;28;20197;-65
2022/05/20 01:26:10;;;;;;;7.20;4.15;;;17.10;55.30;;;;;;5079910;28;20213;-67
2022/05/20 01:28:37;;;;;;;7.82;3.40;;;17.10;55.30;;;;;;5080822;28;20291;-66
2022/05/20 01:31:06;;;;;;;5.00;3.15;;;17.10;55.50;;;;;;5074116;28;20647;-65
2022/05/20 01:33:34;;;;;;;5.18;3.58;;;17.00;55.50;;;;;;5075277;28;20293;-65
2022/05/20 01:36:03;;;;;;;6.40;3.60;;;17.00;55.60;;;;;;5082666;28;20216;-66
2022/05/20 01:38:30;;;;;;;6.03;2.95;;;17.00;55.70;;;;;;5084654;28;20220;-66
2022/05/20 01:41:03;;;;;;;7.03;3.65;;;17.00;55.80;;;;;;5069738;28;20673;-66
2022/05/20 01:43:42;;;;;;;4.47;3.00;;;16.90;55.90;;;;;;5074391;28;20278;-65
2022/05/20 01:46:17;;;;;;;5.10;3.40;;;16.90;56.10;;;;;;5073537;28;20319;-66
2022/05/20 01:48:54;;;;;;;7.68;3.58;;;16.90;56.20;;;;;;5073523;28;20264;-65
2022/05/20 01:51:24;;;;;;;8.13;3.45;;;16.80;56.30;;;;;;5065952;28;20695;-64
2022/05/20 01:53:57;;;;;;;7.60;3.55;;;16.80;56.40;;;;;;5070051;28;20216;-66
2022/05/20 01:56:30;;;;;;;6.70;3.15;;;16.80;56.40;;;;;;5064392;28;20301;-66
2022/05/20 01:59:03;;;;;;;6.38;3.00;;;16.70;56.40;;;;;;5074686;28;20210;-65
2022/05/20 02:01:37;;;;;;;6.57;3.53;;;16.70;56.60;;;;;;5067107;28;20664;-66
2022/05/20 02:04:08;;;;;;;5.05;3.35;;;16.70;56.70;;;;;;5078523;28;20302;-65
2022/05/20 02:06:41;;;;;;;6.23;3.20;;;16.60;56.80;;;;;;5067398;28;20548;-65
2022/05/20 02:09:11;;;;;;;3.45;2.72;;;16.60;56.80;;;;;;5081130;28;20209;-65
2022/05/20 02:11:45;;;;;;;8.35;3.00;;;16.60;56.90;;;;;;5078533;28;20276;-66
2022/05/20 02:14:21;;;;;;;6.00;3.40;;;16.60;57.60;;;;;;5078067;28;20243;-65
2022/05/20 02:16:53;;;;;;;4.95;3.22;;;16.60;57.10;;;;;;5076035;28;20204;-67
2022/05/20 02:19:25;;;;;;;8.75;2.92;;;16.60;57.10;;;;;;5082034;28;20573;-66
2022/05/20 02:21:56;;;;;;;4.88;3.05;;;16.60;57.20;;;;;;5077358;28;20312;-65
2022/05/20 02:24:28;;;;;;;5.93;3.38;;;16.50;57.20;;;;;;5078064;28;20229;-66
2022/05/20 02:27:01;;;;;;;3.37;3.07;;;16.50;57.40;;;;;;5077882;28;20208;-65
2022/05/20 02:29:32;;;;;;;7.78;3.25;;;16.50;57.60;;;;;;5076557;28;20244;-65
2022/05/20 02:32:06;;;;;;;6.30;3.13;;;16.50;57.60;;;;;;5082780;28;20670;-65
2022/05/20 02:34:34;;;;;;;8.13;3.50;;;16.50;57.70;;;;;;5075739;28;20197;-66
2022/05/20 02:37:02;;;;;;;6.45;3.00;;;16.50;57.80;;;;;;5076925;28;20201;-65
2022/05/20 02:39:29;;;;;;;6.50;3.10;;;16.40;57.80;;;;;;5072904;28;20284;-65
2022/05/20 02:41:57;;;;;;;6.17;3.03;;;16.40;57.90;;;;;;5077069;28;20919;-65
2022/05/20 02:44:24;;;;;;;5.90;2.93;;;16.40;58.10;;;;;;5069451;28;20299;-66
2022/05/20 02:46:51;;;;;;;6.18;3.10;;;16.40;58.20;;;;;;5084642;28;20241;-66
2022/05/20 02:49:18;;;;;;;6.57;3.03;;;16.30;58.10;;;;;;5075923;28;20204;-66
2022/05/20 02:51:45;;;;;;;7.97;3.30;;;16.30;58.20;;;;;;5068162;28;20238;-66
2022/05/20 02:54:12;;;;;;;4.13;3.13;;;16.30;58.30;;;;;;5074748;28;20209;-67
2022/05/20 02:56:39;;;;;;;5.25;3.00;;;16.30;58.40;;;;;;5077587;28;20221;-65
2022/05/20 03:04:36;;;;;;;5.10;3.00;;;16.30;58.50;;;;;;5065125;28;20201;-66
2022/05/20 03:07:03;;;;;;;4.53;3.20;;;16.30;58.50;;;;;;5077201;28;20232;-66
2022/05/20 03:09:30;;;;;;;5.13;3.08;;;16.30;58.50;;;;;;5077118;28;20197;-66
2022/05/20 03:11:57;;;;;;;5.73;3.17;;;16.30;58.50;;;;;;5076199;28;20258;-65
2022/05/20 03:14:25;;;;;;;8.90;2.97;;;16.30;58.60;;;;;;5077029;28;20287;-66
2022/05/20 03:16:52;;;;;;;4.13;2.50;;;16.30;58.70;;;;;;5074576;28;20702;-65
2022/05/20 03:19:20;;;;;;;7.53;3.50;;;16.30;58.70;;;;;;5071836;28;20252;-66
2022/05/20 03:21:48;;;;;;;3.90;2.87;;;16.30;58.70;;;;;;5074256;28;20275;-66
2022/05/20 03:24:15;;;;;;;8.00;2.60;;;16.30;58.70;;;;;;5069406;28;20225;-66
2022/05/20 03:26:43;;;;;;;4.47;2.70;;;16.30;58.70;;;;;;5076815;28;20205;-66
2022/05/20 03:29:09;;;;;;;3.20;2.70;;;16.30;58.80;;;;;;5072357;28;20251;-66
2022/05/20 03:31:39;;;;;;;6.97;2.70;;;16.30;58.80;;;;;;5073298;28;20252;-66
2022/05/20 03:34:07;;;;;;;4.70;2.47;;;16.30;58.80;;;;;;5070593;28;20206;-66
2022/05/20 03:36:35;;;;;;;6.73;3.33;;;16.30;58.80;;;;;;5067266;28;20209;-66
2022/05/20 03:39:02;;;;;;;6.45;3.42;;;16.30;58.80;;;;;;5071004;28;20256;-66
2022/05/20 03:41:29;;;;;;;9.50;3.33;;;16.30;58.90;;;;;;5071622;28;20566;-65
2022/05/20 03:43:57;;;;;;;4.07;3.00;;;16.20;59.40;;;;;;5074387;28;20201;-67
2022/05/20 03:46:24;;;;;;;6.28;3.13;;;16.20;58.90;;;;;;5074729;28;20209;-66
2022/05/20 03:48:52;;;;;;;5.63;3.00;;;16.20;58.90;;;;;;5063344;28;20209;-66
2022/05/20 03:51:19;;;;;;;5.60;3.13;;;16.20;58.90;;;;;;5073835;28;20704;-66
2022/05/20 03:53:46;;;;;;;7.30;3.10;;;16.20;59.50;;;;;;5075815;28;20580;-66
2022/05/20 03:56:13;;;;;;;4.00;2.67;;;16.20;59.00;;;;;;5076161;28;20264;-65
2022/05/20 03:58:39;;;;;;;5.57;2.83;;;16.20;59.00;;;;;;5075636;28;20603;-65
2022/05/20 04:03:55;;;;;;;10.83;2.80;;;16.20;59.10;;;;;;5076419;28;20204;-66
2022/05/20 04:06:22;;;;;;;5.05;2.80;;;16.20;59.10;;;;;;5063569;28;20247;-66
2022/05/20 04:08:49;;;;;;;4.63;2.57;;;16.20;59.10;;;;;;5068530;28;20208;-65
2022/05/20 04:11:16;;;;;;;7.47;2.90;;;16.20;59.10;;;;;;5068896;28;20209;-66
2022/05/20 04:13:44;;;;;;;9.25;2.85;;;16.20;59.10;;;;;;5070811;28;20245;-66
2022/05/20 04:16:13;;;;;;;7.90;3.03;;;16.20;59.10;;;;;;5075601;28;20221;-66
2022/05/20 04:18:41;;;;;;;3.73;2.70;;;16.20;59.20;;;;;;5072270;28;20284;-65
2022/05/20 04:21:10;;;;;;;4.67;2.60;;;16.30;59.20;;;;;;5073885;28;20293;-67
2022/05/20 04:23:39;;;;;;;6.63;3.00;;;16.30;59.20;;;;;;5068756;28;20653;-66
2022/05/20 04:26:06;;;;;;;5.63;2.60;;;16.30;59.20;;;;;;5071749;28;20224;-67
2022/05/20 04:28:34;;;;;;;5.83;2.70;;;16.30;59.20;;;;;;5075363;28;20289;-65
2022/05/20 04:31:03;;;;;;;11.90;2.95;;;16.30;59.20;;;;;;5071855;28;20212;-66
2022/05/20 04:33:32;;;;;;;4.73;2.33;;;16.40;59.20;;;;;;5073250;28;20202;-66
2022/05/20 04:35:59;;;;;;;5.73;2.87;;;16.40;59.20;;;;;;5067030;28;20376;-66
2022/05/20 04:38:27;;;;;;;8.43;2.50;;;16.40;59.20;;;;;;5074377;28;20235;-66
2022/05/20 04:49:08;;;;;;;7.07;2.67;;;16.70;59.10;;;;;;5034100;28;20206;-68
2022/05/20 04:51:35;;;;;;;14.93;2.58;;;16.90;59.10;;;;;;5067128;28;20283;-67
2022/05/20 04:56:49;;;;;;;7.38;2.88;;;17.10;58.60;;;;;;5067556;28;20203;-66
2022/05/20 04:59:16;;;;;;;4.53;2.38;;;17.10;58.60;;;;;;5069272;28;20237;-67
2022/05/20 05:01:43;;;;;;;8.02;2.75;;;17.20;58.60;;;;;;5073050;28;20206;-67
2022/05/20 05:04:11;;;;;;;11.18;2.80;;;17.30;58.50;;;;;;5088130;28;20197;-66
2022/05/20 05:06:38;;;;;;;8.52;2.55;;;17.40;58.50;;;;;;5071630;28;20241;-67
2022/05/20 05:09:06;;;;;;;9.70;3.40;;;17.50;58.40;;;;;;5070238;28;20277;-66
2022/05/20 05:11:33;;;;;;;8.80;2.58;;;17.60;58.30;;;;;;5066705;28;20227;-66
2022/05/20 05:13:59;;;;;;;6.72;2.45;;;17.80;58.10;;;;;;5063430;28;20233;-66
2022/05/20 05:16:26;;;;;;;5.53;2.75;;;17.90;57.90;;;;;;5072000;28;20217;-65
2022/05/20 05:18:53;;;;;;;9.75;2.70;;;18.00;57.90;;;;;;5075303;28;20256;-65
2022/05/20 05:21:21;;;;;;;5.15;2.83;;;18.10;57.70;;;;;;5069968;28;20227;-65
2022/05/20 05:23:48;;;;;;;12.95;2.80;;;18.20;57.60;;;;;;5076148;28;20185;-66
2022/05/20 05:26:16;;;;;;;12.00;2.67;;;18.40;57.50;;;;;;5072950;28;20704;-66
2022/05/20 05:28:43;;;;;;;7.82;2.53;;;18.50;57.30;;;;;;5080235;28;20324;-66
2022/05/20 05:31:10;;;;;;;9.57;2.35;;;18.50;57.00;;;;;;5082856;28;20239;-66
2022/05/20 05:33:37;;;;;;;16.30;3.60;;;18.60;57.00;;;;;;5073930;28;20209;-66
2022/05/20 05:36:04;;;;;;;12.20;2.78;;;18.70;57.10;;;;;;5071942;28;20224;-67
2022/05/20 05:38:31;;;;;;;8.93;2.40;;;18.70;57.00;;;;;;5080031;28;20331;-66
2022/05/20 05:40:59;;;;;;;4.68;2.35;;;18.90;57.00;;;;;;5075976;28;20205;-66
2022/05/20 05:43:27;;;;;;;18.45;3.35;;;19.00;57.00;;;;;;5071032;28;20290;-67
2022/05/20 05:45:54;;;;;;;7.35;2.83;;;19.00;56.90;;;;;;5064737;28;20241;-67
2022/05/20 05:48:21;;;;;;;9.63;2.75;;;19.10;56.90;;;;;;5057684;28;20240;-66
2022/05/20 05:50:48;;;;;;;9.50;2.50;;;19.20;56.80;;;;;;5073983;28;20211;-67
2022/05/20 05:53:18;;;;;;;5.80;2.15;;;19.30;56.70;;;;;;5073078;28;20239;-67
2022/05/20 05:55:46;;;;;;;10.40;2.97;;;19.40;56.40;;;;;;5064039;28;20215;-68
2022/05/20 05:58:14;;;;;;;6.25;2.45;;;19.60;56.40;;;;;;5074072;28;20205;-66
2022/05/20 06:00:43;;;;;;;10.75;2.10;;;19.60;55.80;;;;;;5071791;28;20228;-65
2022/05/20 06:03:10;;;;;;;5.00;2.05;;;19.70;55.50;;;;;;5065891;28;20209;-66
2022/05/20 06:05:38;;;;;;;5.35;1.85;;;19.80;55.50;;;;;;5063909;28;20214;-66
2022/05/20 06:08:05;;;;;;;4.18;2.08;;;19.90;55.10;;;;;;5072231;28;20225;-66
2022/05/20 06:10:32;;;;;;;6.78;1.92;;;19.90;54.80;;;;;;5065545;28;20296;-67
2022/05/20 06:12:59;;;;;;;7.00;1.85;;;19.90;54.60;;;;;;5059843;28;20229;-67
2022/05/20 06:15:29;;;;;;;6.72;2.20;;;20.00;54.70;;;;;;5065093;28;20233;-66
2022/05/20 06:17:57;;;;;;;5.13;1.80;;;20.20;54.90;;;;;;5064998;28;20206;-68
2022/05/20 06:20:29;;;;;;;10.70;2.47;;;20.40;54.70;;;;;;5069964;28;20225;-67
2022/05/20 06:22:57;;;;;;;8.95;2.60;;;20.50;54.00;;;;;;5071645;28;20235;-68
2022/05/20 06:25:25;;;;;;;13.02;2.28;;;20.60;54.40;;;;;;5077597;28;20218;-67
2022/05/20 06:27:51;;;;;;;4.35;2.45;;;20.80;54.30;;;;;;5076187;28;20634;-68
2022/05/20 06:30:20;;;;;;;5.97;2.30;;;20.90;54.30;;;;;;5083437;28;20337;-67
2022/05/20 06:32:47;;;;;;;4.63;2.25;;;21.00;54.10;;;;;;5085282;28;20555;-67
2022/05/20 06:40:46;;;;;;;3.50;1.63;;;21.30;54.10;;;;;;5082545;28;20212;-68
2022/05/20 06:43:14;;;;;;;5.57;2.28;;;21.40;54.00;;;;;;5069168;28;20274;-67
2022/05/20 06:45:45;;;;;;;11.02;2.78;;;21.40;54.00;;;;;;5072686;28;20560;-65
2022/05/20 06:48:12;;;;;;;6.57;2.10;;;21.40;54.10;;;;;;5073439;28;20334;-63
2022/05/20 06:50:42;;;;;;;4.03;1.60;;;21.40;54.20;;;;;;5072447;28;20209;-66
2022/05/20 06:53:10;;;;;;;5.22;1.85;;;21.50;54.30;;;;;;5084041;28;20628;-67
2022/05/20 06:55:37;;;;;;;6.03;2.30;;;21.50;54.30;;;;;;5085080;28;20599;-69
2022/05/20 06:58:04;;;;;;;5.85;2.20;;;21.50;54.50;;;;;;5075399;28;20251;-67
2022/05/20 07:00:31;;;;;;;5.03;2.10;;;21.60;54.60;;;;;;5075306;28;20268;-64
2022/05/20 07:02:58;;;;;;;7.63;2.03;;;21.70;54.70;;;;;;5067657;28;20201;-66
2022/05/20 07:05:27;;;;;;;7.03;2.45;;;21.80;54.50;;;;;;5088589;28;20200;-67
2022/05/20 07:07:56;;;;;;;7.93;2.10;;;21.80;54.30;;;;;;5078003;28;20205;-66
2022/05/20 07:10:23;;;;;;;5.25;2.35;;;21.80;54.20;;;;;;5072360;28;20216;-67
2022/05/20 07:12:50;;;;;;;5.40;2.00;;;21.80;54.10;;;;;;5069252;28;20207;-67
2022/05/20 07:15:19;;;;;;;4.40;2.10;;;21.80;54.10;;;;;;5067771;28;20241;-67
2022/05/20 07:17:48;;;;;;;5.38;2.50;;;21.90;54.20;;;;;;5076419;28;20209;-67
2022/05/20 07:20:15;;;;;;;4.88;2.10;;;22.00;54.20;;;;;;5072062;28;20677;-70
2022/05/20 07:22:42;;;;;;;5.57;2.40;;;22.10;54.90;;;;;;5071385;28;20278;-68
2022/05/20 07:25:11;;;;;;;3.80;1.83;;;22.20;54.30;;;;;;5066512;28;20210;-69
2022/05/20 07:27:39;;;;;;;4.07;1.95;;;22.20;54.10;;;;;;5083751;28;20207;-68
2022/05/20 07:30:08;;;;;;;5.78;2.00;;;22.30;54.40;;;;;;5081421;28;20224;-69
2022/05/20 07:32:34;;;;;;;8.23;3.00;;;22.40;54.50;;;;;;5085527;28;20440;-67
2022/05/20 07:35:01;;;;;;;5.10;1.98;;;22.60;54.70;;;;;;5079113;28;20293;-70
2022/05/20 07:37:28;;;;;;;8.52;3.17;;;22.70;54.70;;;;;;5069800;28;20217;-67
2022/05/20 07:39:55;;;;;;;10.32;2.55;;;22.70;55.00;;;;;;5075669;28;20746;-67
2022/05/20 07:42:23;;;;;;;7.25;2.60;;;22.60;54.30;;;;;;5074270;28;20264;-69
2022/05/20 07:44:51;;;;;;;2.83;2.13;;;22.60;54.60;;;;;;5077955;28;20735;-68
2022/05/20 07:47:20;;;;;;;3.40;2.20;;;22.70;54.70;;;;;;5077179;28;20689;-69
2022/05/20 07:49:47;;;;;;;8.93;2.75;;;22.70;54.70;;;;;;5073899;28;20228;-68
2022/05/20 07:53:19;;;;;;;3.72;2.25;;;22.80;54.80;;;;;;5093957;28;20201;-69
2022/05/20 07:55:07;;;;;;;10.52;2.60;;;22.90;54.90;;;;;;5077255;28;20207;-68
2022/05/20 07:57:36;;;;;;;2.70;2.03;;;22.90;54.90;;;;;;5077303;28;20217;-69
2022/05/20 08:00:06;;;;;;;3.55;2.00;;;23.00;55.00;;;;;;5077431;28;20308;-70
2022/05/20 08:02:33;;;;;;;4.63;2.35;;;23.20;55.20;;;;;;5080421;28;20216;-69
2022/05/20 08:05:01;;;;;;;8.50;2.83;;;23.30;55.20;;;;;;5083054;28;20650;-68
2022/05/20 08:07:32;;;;;;;5.80;2.38;;;23.50;55.20;;;;;;5082031;28;20229;-69
2022/05/20 08:10:00;;;;;;;10.32;2.45;;;23.50;55.00;;;;;;5076983;28;20212;-69
2022/05/20 08:12:27;;;;;;;6.30;4.47;;;23.60;55.20;;;;;;5077699;28;20217;-69
2022/05/20 08:14:55;;;;;;;5.05;2.35;;;23.70;55.00;;;;;;5082698;28;20240;-69
2022/05/20 08:17:24;;;;;;;7.13;2.45;;;23.80;54.90;;;;;;5083005;28;20205;-69
2022/05/20 08:19:51;;;;;;;5.15;2.38;;;23.80;55.00;;;;;;5083153;28;20581;-71
2022/05/20 08:22:22;;;;;;;4.88;2.95;;;23.90;54.90;;;;;;5079423;28;20205;-68
2022/05/20 08:24:52;;;;;;;6.05;2.30;;;24.00;55.00;;;;;;5086278;28;20267;-70
2022/05/20 08:27:19;;;;;;;6.43;2.50;;;24.10;55.10;;;;;;5081783;28;20205;-71
2022/05/20 08:29:46;;;;;;;8.15;2.90;;;24.20;55.20;;;;;;5084296;28;20232;-69
2022/05/20 08:32:15;;;;;;;11.98;3.00;;;24.30;55.20;;;;;;5079416;28;20276;-70
2022/05/20 08:34:42;;;;;;;4.93;2.40;;;24.40;55.20;;;;;;5077868;28;20924;-69
2022/05/20 08:37:09;;;;;;;10.00;2.83;;;24.50;54.90;;;;;;5073597;28;20198;-70
2022/05/20 08:39:36;;;;;;;6.75;2.30;;;24.50;54.80;;;;;;5081222;28;20454;-70
2022/05/20 08:42:05;;;;;;;7.45;2.65;;;24.70;54.40;;;;;;5077313;28;20454;-70
2022/05/20 08:44:35;;;;;;;4.13;2.30;;;24.80;54.40;;;;;;5067903;28;20220;-71
2022/05/20 08:47:20;;;;;;;9.15;2.60;;;24.90;54.30;;;;;;5071864;28;20292;-70
2022/05/20 08:49:47;;;;;;;6.13;2.97;;;25.00;54.40;;;;;;5076456;28;20211;-70
2022/05/20 08:52:14;;;;;;;7.95;3.25;;;25.20;54.10;;;;;;5073913;28;20452;-70
2022/05/20 08:54:42;;;;;;;7.22;3.00;;;25.40;54.10;;;;;;5076123;28;20212;-71
2022/05/20 08:57:18;;;;;;;9.70;3.38;;;25.60;53.80;;;;;;5075978;28;20526;-71
2022/05/20 08:59:45;;;;;;;4.55;2.45;;;25.80;53.40;;;;;;5072790;28;20212;-68
2022/05/20 09:02:12;;;;;;;7.53;3.05;;;25.90;53.10;;;;;;5070200;28;20287;-71
2022/05/20 09:04:40;;;;;;;10.82;3.28;;;26.10;52.90;;;;;;5067566;28;20213;-69
2022/05/20 09:07:10;;;;;;;6.65;2.80;;;26.30;52.80;;;;;;5069875;28;20261;-69
2022/05/20 09:09:43;;;;;;;5.15;2.30;;;26.40;52.40;;;;;;5066927;28;20202;-70
2022/05/20 09:12:12;;;;;;;3.97;2.75;;;26.60;52.00;;;;;;5072342;28;20712;-70
2022/05/20 09:17:25;;;;;;;14.73;3.15;;;26.80;51.60;;;;;;5065009;28;20224;-69
2022/05/20 09:20:00;;;;;;;6.22;2.95;;;26.90;51.50;;;;;;5072811;28;20315;-67
2022/05/20 09:22:30;;;;;;;7.47;2.92;;;26.90;51.20;;;;;;5078935;28;20718;-69
2022/05/20 09:24:57;;;;;;;9.13;3.00;;;27.00;51.40;;;;;;5074488;28;20721;-69
2022/05/20 09:27:29;;;;;;;4.78;2.53;;;27.10;51.30;;;;;;5073254;28;20213;-69
2022/05/20 09:29:59;;;;;;;5.38;2.67;;;27.20;51.40;;;;;;5075277;28;20236;-68
2022/05/20 09:32:34;;;;;;;6.43;2.30;;;27.30;50.90;;;;;;5064033;28;20205;-69
2022/05/20 09:35:05;;;;;;;6.60;2.75;;;27.40;50.80;;;;;;5067741;28;20576;-69
2022/05/20 09:37:34;;;;;;;7.57;2.40;;;27.60;50.90;;;;;;5081112;28;20211;-69
2022/05/20 09:40:19;;;;;;;6.47;2.60;;;27.80;51.00;;;;;;5077366;28;20229;-70
2022/05/20 09:42:58;;;;;;;4.63;2.58;;;28.00;50.20;;;;;;5062532;28;20229;-70
2022/05/20 09:45:26;;;;;;;6.32;3.13;;;28.10;49.80;;;;;;5069603;28;20204;-68
2022/05/20 09:47:56;;;;;;;6.15;3.20;;;28.10;49.70;;;;;;5071840;28;20209;-69
2022/05/20 09:50:38;;;;;;;4.80;2.47;;;28.10;49.90;;;;;;5078758;28;20201;-71
2022/05/20 09:53:12;;;;;;;5.00;2.60;;;28.20;49.70;;;;;;5084133;28;20201;-70
2022/05/20 09:55:41;;;;;;;11.07;2.38;;;28.40;49.10;;;;;;5078966;28;20200;-71
2022/05/20 09:58:16;;;;;;;6.55;2.63;;;28.60;48.90;;;;;;5076618;28;20228;-70
2022/05/20 10:00:49;;;;;;;5.97;3.03;;;28.70;48.80;;;;;;5073690;28;20307;-69
2022/05/20 10:03:24;;;;;;;3.30;2.40;;;28.80;48.60;;;;;;5074503;28;20231;-70
2022/05/20 10:06:00;;;;;;;7.13;2.40;;;28.80;48.80;;;;;;5074114;28;20211;-69
2022/05/20 10:08:34;;;;;;;6.05;2.22;;;29.10;49.10;;;;;;5074638;28;20201;-71
2022/05/20 10:11:08;;;;;;;6.18;2.70;;;29.40;48.50;;;;;;5075550;28;20280;-69
2022/05/20 10:13:49;;;;;;;4.10;2.30;;;29.40;48.20;;;;;;5080900;28;20267;-70
2022/05/20 10:16:29;;;;;;;11.55;3.10;;;29.50;48.30;;;;;;5091733;28;20208;-70
2022/05/20 10:19:04;;;;;;;5.20;2.40;;;29.50;48.60;;;;;;5077316;28;20205;-68
2022/05/20 10:21:52;;;;;;;5.63;2.17;;;29.60;48.90;;;;;;5073515;28;20266;-68
2022/05/20 10:24:32;;;;;;;4.60;2.47;;;29.60;49.00;;;;;;5074231;28;20307;-68
2022/05/20 10:27:04;;;;;;;4.43;2.53;;;29.60;49.20;;;;;;5076849;28;20251;-68
2022/05/20 10:32:37;;;;;;;8.60;2.65;;;29.50;49.50;;;;;;5078125;28;20208;-68
2022/05/20 10:35:07;;;;;;;6.97;3.00;;;29.60;49.50;;;;;;5090816;28;20368;-70
2022/05/20 10:37:54;;;;;;;2.35;2.13;;;29.70;49.90;;;;;;5078673;28;20209;-70
2022/05/20 10:40:46;;;;;;;4.22;2.15;;;29.70;49.70;;;;;;5068881;28;20735;-69
2022/05/20 10:49:18;;;;;;;2.97;2.28;;;29.80;50.50;;;;;;5068364;28;20222;-69
2022/05/20 10:52:01;;;;;;;2.53;1.80;;;29.80;50.50;;;;;;5079089;28;20204;-69
2022/05/20 10:54:52;;;;;;;5.07;2.03;;;29.80;50.70;;;;;;5066566;28;20216;-69
2022/05/20 10:57:46;;;;;;;3.15;1.70;;;29.70;50.80;;;;;;5069292;28;20238;-69
2022/05/20 11:00:17;;;;;;;6.50;1.85;;;29.60;51.10;;;;;;5078224;28;20240;-68
2022/05/20 11:03:11;;;;;;;4.78;2.00;;;29.60;51.40;;;;;;5078040;28;20300;-69
2022/05/20 11:05:52;;;;;;;9.48;2.20;;;29.60;51.40;;;;;;5077814;28;20224;-70
2022/05/20 11:08:31;;;;;;;6.47;1.95;;;29.60;51.60;;;;;;5074031;28;20209;-68
2022/05/20 11:11:19;;;;;;;6.00;2.20;;;29.80;51.50;;;;;;5076909;28;20197;-69
2022/05/20 11:14:12;;;;;;;6.20;2.35;;;29.70;51.40;;;;;;5073679;28;21931;-68
2022/05/20 11:16:56;;;;;;;6.00;2.00;;;29.60;51.80;;;;;;5071328;28;20209;-69
2022/05/20 11:19:36;;;;;;;4.97;2.20;;;29.50;52.60;;;;;;5076938;28;20205;-70
2022/05/20 11:22:28;;;;;;;10.00;2.28;;;29.50;52.10;;;;;;5087237;28;20232;-69
2022/05/20 11:25:30;;;;;;;6.25;1.92;;;29.50;52.50;;;;;;5071141;28;20229;-70
2022/05/20 11:28:21;;;;;;;2.17;1.85;;;29.60;52.20;;;;;;5069879;28;20200;-68
2022/05/20 11:31:02;;;;;;;3.03;2.00;;;29.70;52.20;;;;;;5077998;28;20240;-70
2022/05/20 11:34:13;;;;;;;3.03;1.70;;;29.90;52.10;;;;;;5077468;28;20292;-69
2022/05/20 11:36:57;;;;;;;6.65;2.10;;;29.90;51.70;;;;;;4995564;28;20210;-69
2022/05/20 11:39:59;;;;;;;6.50;1.95;;;30.10;51.50;;;;;;5076425;28;20209;-69
2022/05/20 11:42:41;;;;;;;8.45;2.13;;;30.30;51.00;;;;;;5065305;28;20291;-68
2022/05/20 11:45:19;;;;;;;9.50;2.05;;;30.40;50.60;;;;;;5077596;28;20212;-69
2022/05/20 11:48:04;;;;;;;6.50;1.95;;;30.30;50.30;;;;;;5072726;28;20201;-70
2022/05/20 11:50:51;;;;;;;4.88;1.77;;;30.40;50.40;;;;;;5065920;28;20637;-70
2022/05/20 11:53:21;;;;;;;6.28;2.22;;;30.40;50.50;;;;;;5065922;28;20254;-69
2022/05/20 11:55:53;;;;;;;5.90;1.80;;;30.50;50.60;;;;;;5079113;28;20197;-69
2022/05/20 11:58:25;;;;;;;6.90;1.35;;;30.70;50.00;;;;;;5067914;28;20205;-70
2022/05/20 12:00:54;;;;;;;10.20;2.33;;;30.80;49.20;;;;;;5090712;28;20221;-71
2022/05/20 12:03:25;;;;;;;8.48;1.75;;;30.80;49.00;;;;;;5089442;28;20204;-70
2022/05/20 12:05:54;;;;;;;3.35;1.80;;;30.80;48.60;;;;;;5077279;28;20201;-70
2022/05/20 12:08:55;;;;;;;6.20;2.20;;;30.80;49.00;;;;;;5083721;28;20207;-70
2022/05/20 12:11:27;;;;;;;6.40;2.15;;;30.70;49.40;;;;;;5073934;28;20189;-69
2022/05/20 12:14:06;;;;;;;3.92;1.85;;;30.70;49.60;;;;;;5077685;28;20240;-69
2022/05/20 12:16:52;;;;;;;4.55;1.70;;;30.60;50.40;;;;;;5079737;28;20672;-70
2022/05/20 12:24:53;;;;;;;5.22;2.03;;;30.50;49.80;;;;;;5080523;28;20220;-69
2022/05/20 12:27:41;;;;;;;4.55;2.08;;;30.50;49.60;;;;;;5078941;28;20215;-68
2022/05/20 12:30:28;;;;;;;10.93;2.38;;;30.60;49.60;;;;;;5076803;28;20221;-69
2022/05/20 12:32:57;;;;;;;8.00;1.70;;;30.60;49.80;;;;;;5070472;28;20513;-68
2022/05/20 12:35:27;;;;;;;15.15;1.77;;;30.50;49.70;;;;;;5078296;28;20204;-69
2022/05/20 12:38:00;;;;;;;5.75;1.95;;;30.40;49.50;;;;;;5074510;28;20696;-69
2022/05/20 12:40:54;;;;;;;7.75;1.67;;;30.30;49.70;;;;;;5072532;28;20573;-69
2022/05/20 12:44:03;;;;;;;6.03;1.70;;;30.30;49.70;;;;;;5072634;28;20580;-68
2022/05/20 12:46:54;;;;;;;4.63;1.50;;;30.20;49.90;;;;;;5075727;28;20295;-69
2022/05/20 12:49:25;;;;;;;4.55;1.50;;;29.90;50.00;;;;;;5080001;28;20632;-69
2022/05/20 12:51:53;;;;;;;3.00;1.35;;;29.70;50.40;;;;;;5081427;28;20192;-68
2022/05/20 12:54:23;;;;;;;5.40;1.40;;;29.50;50.60;;;;;;5076521;28;20217;-68
2022/05/20 12:56:55;;;;;;;2.55;1.48;;;29.40;50.50;;;;;;5073900;28;20236;-70
2022/05/20 12:59:24;;;;;;;4.10;1.67;;;29.30;50.20;;;;;;5081940;28;20314;-71
2022/05/20 13:01:56;;;;;;;10.95;1.83;;;29.30;50.10;;;;;;5067333;28;20229;-70
2022/05/20 13:04:28;;;;;;;6.85;1.42;;;29.30;50.00;;;;;;5088813;28;20295;-68
2022/05/20 13:06:57;;;;;;;2.38;1.65;;;29.40;49.80;;;;;;5090714;28;20216;-69
2022/05/20 13:09:28;;;;;;;8.38;1.70;;;29.50;49.50;;;;;;5074896;28;20634;-67
2022/05/20 13:12:03;;;;;;;8.57;1.80;;;29.50;49.30;;;;;;5070285;28;20201;-68
2022/05/20 13:14:31;;;;;;;9.02;2.17;;;29.50;49.10;;;;;;5072671;28;20369;-66
2022/05/20 13:17:01;;;;;;;6.72;1.65;;;29.60;49.00;;;;;;5079010;28;20208;-67
2022/05/20 13:19:38;;;;;;;5.68;1.50;;;29.60;49.00;;;;;;5075281;28;20326;-65
2022/05/20 13:22:07;;;;;;;2.40;1.60;;;29.50;49.10;;;;;;5064037;28;20702;-65
2022/05/20 13:24:37;;;;;;;5.03;1.88;;;29.40;49.80;;;;;;5070966;28;20270;-67
2022/05/20 13:27:11;;;;;;;4.25;1.55;;;29.30;50.20;;;;;;5069415;28;20592;-67
2022/05/20 13:29:38;;;;;;;1.85;1.50;;;29.20;50.40;;;;;;5076319;28;20260;-68
2022/05/20 13:32:21;;;;;;;5.03;1.95;;;29.10;50.70;;;;;;5068004;28;20197;-67
2022/05/20 13:34:52;;;;;;;4.03;1.92;;;29.20;50.90;;;;;;5070078;28;20736;-68
2022/05/20 13:37:24;;;;;;;6.90;1.67;;;29.20;50.90;;;;;;5084216;28;20207;-67
2022/05/20 13:39:55;;;;;;;2.75;1.77;;;29.30;50.80;;;;;;5084094;28;20204;-68
2022/05/20 13:42:24;;;;;;;7.15;2.00;;;29.40;50.70;;;;;;5086370;28;20317;-69
2022/05/20 13:44:53;;;;;;;4.38;1.50;;;29.40;50.50;;;;;;5079998;28;20250;-66
2022/05/20 13:50:11;;;;;;;2.50;1.70;;;29.30;50.40;;;;;;5085766;28;20230;-67
2022/05/20 13:52:41;;;;;;;5.95;1.73;;;29.30;50.40;;;;;;5068323;28;20276;-66